createdAt,value
2022-12-31T00:01:45.592Z,3.28
2022-12-31T00:06:49.691Z,2.95
2022-12-31T00:11:52.446Z,1.42
2022-12-31T00:16:55.211Z,2.63
2022-12-31T00:21:59.329Z,1.42
2022-12-31T00:27:02.196Z,1.95
2022-12-31T00:32:05.146Z,2.38
2022-12-31T00:37:09.507Z,1.70
2022-12-31T00:42:12.220Z,1.92
2022-12-31T00:52:18.913Z,1.10
2022-12-31T00:57:21.705Z,1.65
2022-12-31T01:02:24.722Z,1.30
2022-12-31T01:07:29.127Z,2.20
2022-12-31T01:12:31.851Z,3.72
2022-12-31T01:17:35.561Z,1.70
2022-12-31T01:22:39.701Z,0.90
2022-12-31T01:27:42.497Z,1.10
2022-12-31T01:32:45.683Z,1.42
2022-12-31T01:37:49.812Z,2.30
2022-12-31T01:42:56.293Z,1.75
2022-12-31T01:48:00.655Z,1.90
2022-12-31T01:53:06.403Z,2.08
2022-12-31T01:58:12.588Z,1.63
2022-12-31T02:03:15.835Z,1.48
2022-12-31T02:08:20.226Z,0.50
2022-12-31T02:13:23.240Z,0.35
2022-12-31T02:18:35.054Z,0.60
2022-12-31T02:23:56.486Z,2.83
2022-12-31T02:29:22.123Z,0.47
2022-12-31T02:34:33.057Z,1.80
2022-12-31T02:39:37.140Z,0.95
2022-12-31T02:44:41.654Z,0.50
2022-12-31T02:49:59.780Z,1.15
2022-12-31T02:55:11.071Z,1.88
2022-12-31T03:00:35.029Z,0.65
2022-12-31T03:05:42.574Z,1.75
2022-12-31T03:10:45.379Z,0.80
2022-12-31T03:15:48.177Z,0.63
2022-12-31T03:21:09.990Z,0.40
2022-12-31T03:26:13.731Z,0.35
2022-12-31T03:31:17.135Z,0.65
2022-12-31T03:36:21.266Z,0.20
2022-12-31T03:41:24.097Z,0.15
2022-12-31T03:46:26.940Z,0.20
2022-12-31T03:51:31.136Z,0.08
2022-12-31T03:56:33.934Z,0.40
2022-12-31T04:01:37.001Z,0.10
2022-12-31T04:06:41.597Z,0.22
2022-12-31T04:11:44.461Z,0.13
2022-12-31T04:16:47.416Z,18.88
2022-12-31T04:21:51.599Z,0.52
2022-12-31T04:26:54.361Z,0.10
2022-12-31T04:31:57.340Z,0.22
2022-12-31T04:37:02.079Z,0.28
2022-12-31T04:42:04.912Z,0.52
2022-12-31T04:47:07.654Z,0.10
2022-12-31T04:52:11.794Z,0.20
2022-12-31T04:57:14.607Z,0.70
2022-12-31T05:02:17.533Z,0.00
2022-12-31T05:07:21.825Z,0.57
2022-12-31T05:12:24.842Z,0.28
2022-12-31T05:17:27.619Z,0.43
2022-12-31T05:22:31.895Z,0.88
2022-12-31T05:27:34.968Z,0.22
2022-12-31T05:32:37.973Z,0.60
2022-12-31T05:37:42.101Z,0.30
2022-12-31T05:42:45.212Z,0.25
2022-12-31T05:47:48.011Z,0.40
2022-12-31T05:52:53.634Z,2.38
2022-12-31T05:57:56.412Z,0.82
2022-12-31T06:02:59.474Z,0.60
2022-12-31T06:08:03.674Z,1.13
2022-12-31T06:13:06.510Z,1.67
2022-12-31T06:18:11.189Z,1.15
2022-12-31T06:23:15.350Z,2.72
2022-12-31T06:28:20.523Z,0.60
2022-12-31T06:33:23.479Z,1.90
2022-12-31T06:38:29.179Z,0.30
2022-12-31T06:43:31.964Z,0.20
2022-12-31T06:48:35.013Z,0.82
2022-12-31T06:53:39.161Z,0.30
2022-12-31T06:58:42.841Z,1.45
2022-12-31T07:03:56.054Z,0.45
2022-12-31T07:09:06.940Z,0.50
2022-12-31T07:14:21.811Z,0.82
2022-12-31T07:19:36.817Z,0.20
2022-12-31T07:24:41.752Z,0.55
2022-12-31T07:30:00.913Z,0.30
2022-12-31T07:35:13.723Z,4.05
2022-12-31T07:40:24.113Z,0.28
2022-12-31T07:45:33.404Z,1.60
2022-12-31T07:50:36.735Z,0.98
2022-12-31T07:55:40.955Z,2.03
2022-12-31T08:00:43.878Z,1.35
2022-12-31T08:05:54.398Z,2.67
2022-12-31T08:11:07.690Z,4.30
2022-12-31T08:16:13.278Z,1.75
2022-12-31T08:21:32.702Z,3.95
2022-12-31T08:26:50.958Z,1.05
2022-12-31T08:32:00.956Z,0.95
2022-12-31T08:37:09.737Z,0.98
2022-12-31T08:42:23.125Z,1.60
2022-12-31T08:47:38.837Z,1.52
2022-12-31T08:52:42.237Z,1.77
2022-12-31T08:57:56.499Z,0.95
2022-12-31T09:03:16.923Z,1.10
2022-12-31T09:08:29.377Z,4.07
2022-12-31T09:13:43.029Z,1.55
2022-12-31T09:18:45.914Z,0.75
2022-12-31T09:23:49.018Z,1.20
2022-12-31T09:29:04.054Z,2.03
2022-12-31T09:34:13.704Z,2.90
2022-12-31T09:39:23.579Z,3.92
2022-12-31T09:45:06.684Z,6.10
2022-12-31T09:50:41.486Z,2.33
2022-12-31T09:55:49.668Z,1.02
2022-12-31T10:01:01.970Z,1.10
2022-12-31T10:06:17.332Z,2.70
2022-12-31T10:11:28.323Z,1.35
2022-12-31T10:16:53.125Z,0.50
2022-12-31T10:22:09.812Z,1.85
2022-12-31T10:27:22.253Z,1.42
2022-12-31T10:32:44.217Z,0.80
2022-12-31T10:37:57.862Z,1.67
2022-12-31T10:43:32.970Z,1.42
2022-12-31T10:48:58.301Z,0.50
2022-12-31T10:54:50.016Z,1.95
2022-12-31T11:00:15.027Z,1.05
2022-12-31T11:05:50.614Z,1.05
2022-12-31T11:11:21.088Z,1.10
2022-12-31T11:16:44.872Z,5.25
2022-12-31T11:22:21.892Z,2.10
2022-12-31T11:27:39.880Z,1.08
2022-12-31T11:32:56.180Z,1.63
2022-12-31T11:38:10.449Z,1.95
2022-12-31T11:43:24.539Z,3.38
2022-12-31T11:48:33.401Z,1.75
2022-12-31T11:53:57.445Z,1.00
2022-12-31T11:59:04.870Z,1.20
2022-12-31T12:04:12.252Z,2.43
2022-12-31T12:09:23.068Z,1.40
2022-12-31T12:14:33.209Z,2.25
2022-12-31T12:19:42.779Z,2.33
2022-12-31T12:24:55.885Z,6.25
2022-12-31T12:29:59.285Z,2.25
2022-12-31T12:35:02.076Z,4.03
2022-12-31T12:40:09.851Z,2.60
2022-12-31T12:45:17.655Z,3.22
2022-12-31T12:50:25.208Z,0.90
2022-12-31T12:55:38.131Z,2.75
2022-12-31T13:00:48.115Z,3.65
2022-12-31T13:06:07.561Z,3.92
2022-12-31T13:11:29.225Z,7.55
2022-12-31T13:16:37.996Z,3.42
2022-12-31T13:21:50.286Z,4.28
2022-12-31T13:27:01.779Z,4.00
2022-12-31T13:32:08.822Z,0.80
2022-12-31T13:37:23.478Z,2.80
2022-12-31T13:42:33.730Z,5.05
2022-12-31T13:47:41.321Z,1.75
2022-12-31T13:52:49.817Z,3.50
2022-12-31T13:57:57.612Z,2.25
2022-12-31T14:03:10.094Z,2.35
2022-12-31T14:08:13.018Z,1.17
2022-12-31T14:13:41.709Z,3.75
2022-12-31T14:18:49.467Z,2.70
2022-12-31T14:24:03.053Z,1.85
2022-12-31T14:29:21.617Z,6.28
2022-12-31T14:34:37.523Z,2.20
2022-12-31T14:39:52.011Z,2.90
2022-12-31T14:45:05.636Z,2.03
2022-12-31T14:50:13.657Z,1.42
2022-12-31T14:55:26.511Z,2.08
2022-12-31T15:00:34.244Z,3.70
2022-12-31T15:05:38.974Z,3.22
2022-12-31T15:10:53.861Z,4.25
2022-12-31T15:16:19.722Z,3.60
2022-12-31T15:21:39.055Z,2.85
2022-12-31T15:26:49.525Z,6.25
2022-12-31T15:31:55.143Z,3.20
2022-12-31T15:36:59.812Z,5.65
2022-12-31T15:42:36.869Z,6.10
2022-12-31T15:47:30.402Z,3.05
2022-12-31T15:52:40.544Z,4.75
2022-12-31T15:57:44.486Z,3.67
2022-12-31T16:02:52.096Z,1.23
2022-12-31T16:07:56.415Z,3.17
2022-12-31T16:13:00.742Z,1.60
2022-12-31T16:18:07.113Z,3.97
2022-12-31T16:23:20.709Z,3.88
2022-12-31T16:28:27.371Z,4.70
2022-12-31T16:33:32.268Z,2.95
2022-12-31T16:38:36.915Z,4.15
2022-12-31T16:43:43.204Z,7.75
2022-12-31T16:48:49.666Z,3.88
2022-12-31T16:53:53.205Z,5.07
2022-12-31T16:59:02.524Z,1.58
2022-12-31T17:04:12.366Z,2.97
2022-12-31T17:09:20.666Z,3.75
2022-12-31T17:14:25.323Z,7.25
2022-12-31T17:19:38.053Z,2.55
2022-12-31T17:24:41.124Z,2.08
2022-12-31T17:29:44.213Z,4.18
2022-12-31T17:34:51.072Z,4.28
2022-12-31T17:40:16.996Z,2.80
2022-12-31T17:45:23.167Z,4.25
2022-12-31T17:50:28.704Z,1.70
2022-12-31T17:55:31.486Z,2.33
2022-12-31T18:00:37.587Z,2.22
2022-12-31T18:05:41.714Z,5.57
2022-12-31T18:10:45.905Z,3.08
2022-12-31T18:15:48.766Z,2.90
2022-12-31T18:20:55.000Z,3.25
2022-12-31T18:25:58.117Z,4.65
2022-12-31T18:31:01.065Z,1.77
2022-12-31T18:36:11.198Z,2.10
2022-12-31T18:41:19.455Z,0.80
2022-12-31T18:46:25.115Z,2.33
2022-12-31T18:51:32.367Z,2.38
2022-12-31T18:56:35.555Z,4.68
2022-12-31T19:01:40.669Z,3.90
2022-12-31T19:06:44.950Z,2.13
2022-12-31T19:11:48.896Z,3.97
2022-12-31T19:16:53.259Z,5.68
2022-12-31T19:21:57.407Z,6.22
2022-12-31T19:27:01.678Z,1.42
2022-12-31T19:32:04.620Z,6.68
2022-12-31T19:37:12.158Z,3.22
2022-12-31T19:42:16.462Z,5.15
2022-12-31T19:47:19.273Z,2.15
2022-12-31T19:52:23.446Z,6.05
2022-12-31T19:57:26.197Z,3.95
2022-12-31T20:02:29.194Z,2.78
2022-12-31T20:07:33.684Z,4.78
2022-12-31T20:12:40.674Z,2.67
2022-12-31T20:17:47.022Z,4.45
2022-12-31T20:22:51.174Z,2.90
2022-12-31T20:27:55.406Z,7.57
2022-12-31T20:32:58.179Z,3.75
2022-12-31T20:38:02.358Z,2.75
2022-12-31T20:43:05.161Z,5.78
2022-12-31T20:48:08.039Z,6.30
2022-12-31T20:53:14.653Z,6.13
2022-12-31T20:58:17.467Z,5.90
2022-12-31T21:04:02.341Z,8.30
2022-12-31T21:08:45.431Z,5.88
2022-12-31T21:13:48.249Z,8.80
2022-12-31T21:18:51.202Z,6.57
2022-12-31T21:23:55.429Z,7.40
2022-12-31T21:28:58.678Z,5.85
2022-12-31T21:34:01.453Z,7.95
2022-12-31T21:39:05.706Z,4.82
2022-12-31T21:44:08.498Z,10.05
2022-12-31T21:49:11.360Z,17.15
2022-12-31T21:54:35.577Z,9.32
2022-12-31T22:00:23.998Z,7.82
2022-12-31T22:05:24.976Z,4.13
2022-12-31T22:10:31.676Z,6.57
2022-12-31T22:15:38.277Z,7.20
2022-12-31T22:20:41.420Z,6.47
2022-12-31T22:25:45.565Z,10.48
2022-12-31T22:30:48.687Z,16.63
2022-12-31T22:35:59.526Z,7.20
2022-12-31T22:41:05.435Z,7.22
2022-12-31T22:46:10.743Z,3.85
2022-12-31T22:51:15.725Z,6.68
2022-12-31T22:56:20.039Z,7.28
2022-12-31T23:01:24.438Z,12.43
2022-12-31T23:06:28.689Z,14.05
2022-12-31T23:11:34.261Z,15.82
2022-12-31T23:16:54.465Z,22.90
2022-12-31T23:22:15.541Z,20.17
2022-12-31T23:27:20.099Z,14.68
2022-12-31T23:32:22.922Z,19.60
2022-12-31T23:37:25.818Z,21.83
2022-12-31T23:42:30.032Z,17.42
2022-12-31T23:47:33.385Z,23.08
2022-12-31T23:52:36.807Z,22.65
2022-12-31T23:57:40.934Z,11.43
